Flight Track Log - Related Links

Times and Time Zones

All times are in EDT time to prevent confusion due to time zone crossing. See the SKW5576 flight status page for this flight to view local times or setup timezone preferences in your user account.

Time Position Orientation Groundspeed Altitude Reporting Facility
EDT Latitude Longitude Course Direction KTS MPH feet Rate Location/Type
Fri 07:37:07 PM 29.9594 -95.3414 277° West 152 175 700  Level Houston Center
Fri 07:38:39 PM 29.9056 -95.4178 231° Southwest 249 287 3,500 1,935 Climbing Houston Center
Fri 07:39:00 PM 30.0239 -95.7382 280° West  Level FlightAware Approximate
Fri 07:39:11 PM 29.8883 -95.4431 232° Southwest 237 273 4,700  Level Houston Center
Fri 07:40:00 PM 30.0395 -95.8735 276° West  Level FlightAware Approximate
Fri 07:40:13 PM 29.8442 -95.5061 231° Southwest 252 290 7,400  Level Houston Center
Fri 07:41:00 PM 30.0529 -96.0088 291° West  Level FlightAware Approximate
Fri 07:41:15 PM 29.7975 -95.5892 237° Southwest 276 318 9,800  Level Houston Center
Fri 07:42:00 PM 30.0759 -96.1418 277° West  Level FlightAware Approximate
Fri 07:42:17 PM 29.8050 -95.6819 275° West 292 336 12,100  Level Houston Center
Fri 07:43:19 PM 29.8125 -95.7853 275° West 322 371 13,400 1,452 Climbing Houston Center
Fri 07:44:21 PM 29.8325 -95.8975 282° West 360 414 15,100 1,742 Climbing Houston Center
Fri 07:45:23 PM 29.8614 -96.0278 284° West 370 426 17,000 1,694 Climbing Houston Center
Fri 07:46:25 PM 29.8869 -96.1450 284° West 378 435 18,600 1,597 Climbing Houston Center
Fri 07:47:27 PM 29.9122 -96.2664 284° West 389 448 20,300 1,597 Climbing Houston Center
Fri 07:48:29 PM 29.9375 -96.3897 283° West 396 456 21,900 1,742 Climbing Houston Center
Fri 07:49:31 PM 29.9625 -96.5097 284° West 389 448 23,900 1,597 Climbing Houston Center
Fri 07:50:33 PM 29.9922 -96.6536 283° West 388 447 25,200 1,161 Climbing Houston Center
Fri 07:51:35 PM 30.0169 -96.7778 283° West 397 457 26,300 1,065 Climbing Houston Center
Fri 07:52:37 PM 30.0428 -96.9031 283° West 403 464 27,400 871 Climbing Houston Center
Fri 07:53:39 PM 30.0686 -97.0294 283° West 407 468 28,100 683 Climbing Houston Center
Fri 07:54:40 PM 30.0964 -97.1697 283° West 423 487 28,800 634 Climbing Houston Center
Fri 07:55:42 PM 30.1242 -97.3119 283° West 440 506 29,400 629 Climbing Houston Center
Fri 07:56:44 PM 30.1528 -97.4558 283° West 451 519 30,100 871 Climbing Houston Center
Fri 07:57:46 PM 30.1814 -97.5975 283° West 449 517 31,200 968 Climbing Houston Center
Fri 07:58:48 PM 30.2092 -97.7403 283° West 449 517 32,100 1,161 Climbing Houston Center
Fri 07:59:50 PM 30.2408 -97.8969 283° West 439 505 33,600 919 Climbing Houston Center
Fri 08:00:52 PM 30.2683 -98.0450 282° West 439 505 34,000 683 Climbing Houston Center
Fri 08:01:53 PM 30.2961 -98.1872 283° West 451 519 35,000 976 Climbing Houston Center
Fri 08:02:55 PM 30.3225 -98.3261 282° West 443 510 36,000 484 Climbing Houston Center
Fri 08:03:57 PM 30.3481 -98.4650 282° West 437 503 36,000 290 Level Houston Center
Fri 08:04:59 PM 30.3750 -98.6039 283° West 439 505 36,600 968 Climbing Houston Center
Fri 08:06:01 PM 30.4003 -98.7383 282° West 424 488 38,000 683 Climbing Houston Center
Fri 08:07:02 PM 30.4261 -98.8714 283° West 419 482 38,000  Level Houston Center
Fri 08:08:04 PM 30.4511 -99.0081 282° West 428 493 38,000  Level Houston Center
Fri 08:09:06 PM 30.4792 -99.1547 283° West 436 502 38,000  Level Houston Center
Fri 08:10:08 PM 30.5042 -99.2939 282° West 441 507 38,000  Level Houston Center
Fri 08:11:09 PM 30.5303 -99.4331 282° West 443 510 38,000  Level Houston Center
Fri 08:12:11 PM 30.5661 -99.6006 284° West 447 514 38,000  Level Houston Center
Fri 08:13:13 PM 30.5958 -99.7394 284° West 446 513 38,000  Level Houston Center
Fri 08:14:15 PM 30.6244 -99.8761 284° West 445 512 38,000  Level Houston Center
Fri 08:15:16 PM 30.6536 -100.0147 284° West 438 504 38,000  Level Houston Center
Fri 08:16:18 PM 30.6844 -100.1533 285° West 443 510 38,000  Level Houston Center
Fri 08:17:20 PM 30.7147 -100.2936 284° West 448 516 38,000  Level Houston Center
Fri 08:18:22 PM 30.7483 -100.4614 283° West 453 521 38,000  Level Houston Center
Fri 08:19:23 PM 30.7761 -100.5972 283° West 444 511 38,000  Level Houston Center
Fri 08:20:25 PM 30.8061 -100.7361 284° West 451 519 38,000  Level Houston Center
Fri 08:21:27 PM 30.8336 -100.8778 283° West 448 516 38,000  Level Houston Center
Fri 08:22:28 PM 30.8614 -101.0156 283° West 441 507 38,000  Level Houston Center
Fri 08:23:30 PM 30.8892 -101.1525 283° West 439 505 38,000  Level Houston Center
Fri 08:24:32 PM 30.9172 -101.2897 283° West 437 503 38,000  Level Houston Center
Fri 08:25:33 PM 30.9481 -101.4461 283° West 417 480 38,000  Level Houston Center
Fri 08:27:37 PM 31.0019 -101.7194 283° West 429 494 38,000  Level Houston Center
Fri 08:28:38 PM 31.0292 -101.8539 283° West 428 493 38,000  Level Houston Center
Fri 08:29:40 PM 31.0556 -101.9903 283° West 445 512 38,000  Level Houston Center
Fri 08:30:42 PM 31.0819 -102.1281 283° West 441 507 38,000  Level Houston Center
Fri 08:31:44 PM 31.1075 -102.2681 282° West 426 490 38,000  Level Houston Center
Fri 08:32:45 PM 31.1336 -102.4111 282° West 445 512 38,000  Level Houston Center
Fri 08:33:47 PM 31.1619 -102.5528 283° West 443 510 38,000  Level Houston Center
Fri 08:34:49 PM 31.1947 -102.7192 283° West 437 503 38,000  Level Houston Center
Fri 08:35:50 PM 31.2211 -102.8575 283° West 436 502 38,000  Level Houston Center
Fri 08:36:55 PM 31.2467 -102.9961 282° West 437 503 38,000  Level Albuquerque Center
Fri 08:37:57 PM 31.2728 -103.1353 282° West 438 504 38,000  Level Albuquerque Center
Fri 08:38:58 PM 31.2981 -103.2733 282° West 438 504 38,000  Level Albuquerque Center
Fri 08:40:00 PM 31.3281 -103.4403 282° West 438 504 38,000  Level Albuquerque Center
Fri 08:41:02 PM 31.3539 -103.5797 282° West 439 505 38,000  Level Albuquerque Center
Fri 08:42:03 PM 31.3803 -103.7197 282° West 440 506 38,000  Level Albuquerque Center
Fri 08:43:05 PM 31.4014 -103.8406 282° West 440 506 38,000  Level Albuquerque Center
Fri 08:44:06 PM 31.4322 -104.0083 282° West 441 507 38,000  Level Albuquerque Center
Fri 08:45:08 PM 31.4572 -104.1483 282° West 441 507 38,000  Level Albuquerque Center
Fri 08:46:09 PM 31.4822 -104.2883 282° West 442 509 38,000  Level Albuquerque Center
Fri 08:47:11 PM 31.5069 -104.4297 282° West 444 511 38,000  Level Albuquerque Center
Fri 08:48:12 PM 31.5319 -104.5717 282° West 446 513 38,000  Level Albuquerque Center
Fri 08:49:14 PM 31.5564 -104.7125 282° West 446 513 38,000  Level Albuquerque Center
Fri 08:50:15 PM 31.5856 -104.8847 281° West 450 518 38,000  Level Albuquerque Center
Fri 08:51:17 PM 31.6114 -105.0278 282° West 451 519 38,000  Level Albuquerque Center
Fri 08:52:18 PM 31.6353 -105.1711 281° West 451 519 38,000  Level Albuquerque Center
Fri 08:53:20 PM 31.6594 -105.3139 281° West 450 518 38,000  Level Albuquerque Center
Fri 08:54:21 PM 31.6828 -105.4606 281° West 457 526 38,000  Level Albuquerque Center
Fri 08:55:23 PM 31.7072 -105.6056 281° West 455 524 38,000  Level Albuquerque Center
Fri 08:56:24 PM 31.7314 -105.7511 281° West 455 524 38,000  Level Albuquerque Center
Fri 08:57:25 PM 31.7589 -105.9250 281° West 454 522 38,000  Level Albuquerque Center
Fri 08:58:27 PM 31.7828 -106.0703 281° West 455 524 38,000  Level Albuquerque Center
Fri 08:59:28 PM 31.8075 -106.2153 281° West 454 522 38,000  Level Albuquerque Center
Fri 09:00:30 PM 31.8289 -106.3656 280° West 467 537 38,000  Level Albuquerque Center
Fri 09:01:31 PM 31.8453 -106.5136 277° West 461 531 38,000  Level Albuquerque Center
Fri 09:02:33 PM 31.8642 -106.6753 278° West 459 528 38,000  Level Albuquerque Center
Fri 09:03:34 PM 31.8811 -106.8244 278° West 459 528 38,000  Level Albuquerque Center
Fri 09:04:35 PM 31.8983 -106.9753 278° West 463 533 38,000  Level Albuquerque Center
Fri 09:05:37 PM 31.9150 -107.1275 277° West 466 536 38,000  Level Albuquerque Center
Fri 09:06:38 PM 31.9311 -107.2789 277° West 465 535 38,000  Level Albuquerque Center
Fri 09:07:40 PM 31.9483 -107.4319 278° West 467 537 38,000  Level Albuquerque Center
Fri 09:08:41 PM 31.9647 -107.5853 277° West 468 539 38,000  Level Albuquerque Center
Fri 09:09:42 PM 31.9819 -107.7381 278° West 469 540 38,000 -49 Level Albuquerque Center
Fri 09:10:44 PM 31.9967 -107.8906 277° West 468 539 37,900  Descending Albuquerque Center
Fri 09:11:45 PM 32.0175 -108.0717 278° West 465 535 38,000 49 Climbing Albuquerque Center
Fri 09:12:46 PM 32.0317 -108.2208 276° West 459 528 38,000  Level Albuquerque Center
Fri 09:13:48 PM 32.0469 -108.3706 277° West 458 527 38,000  Level Albuquerque Center
Fri 09:14:49 PM 32.0553 -108.5217 274° West 459 528 38,000  Level Albuquerque Center
Fri 09:15:50 PM 32.0597 -108.6769 272° West 464 534 38,000  Level Albuquerque Center
Fri 09:16:52 PM 32.0647 -108.8317 272° West 471 542 38,000 -634 Level Albuquerque Center
Fri 09:17:53 PM 32.0694 -108.9881 272° West 475 547 36,700 -2,164 Descending Albuquerque Center
Fri 09:18:54 PM 32.0753 -109.1503 272° West 487 560 33,600 -2,976 Descending Albuquerque Center
Fri 09:19:56 PM 32.0792 -109.3122 272° West 492 566 30,600 -2,927 Descending Albuquerque Center
Fri 09:20:57 PM 32.0833 -109.4708 272° West 487 560 27,600 -2,951 Descending Albuquerque Center
Fri 09:21:58 PM 32.0878 -109.6286 272° West 482 555 24,600 -2,976 Descending Albuquerque Center
Fri 09:23:00 PM 32.0933 -109.8122 272° West 470 541 21,500 -2,732 Descending Albuquerque Center
Fri 09:24:01 PM 32.0969 -109.9572 272° West 450 518 19,000 -2,459 Descending Albuquerque Center
Fri 09:25:02 PM 32.0983 -110.0981 271° West 436 502 16,500 -2,146 Descending Albuquerque Center
Fri 09:26:04 PM 32.1247 -110.2292 283° West 414 476 14,600 -1,415 Descending Albuquerque Center
Fri 09:27:05 PM 32.1575 -110.3572 287° West 406 467 13,600 -934 Descending Albuquerque Center
Fri 09:28:06 PM 32.1861 -110.4647 287° West 358 412 12,700 -934 Descending Albuquerque Center
Fri 09:29:07 PM 32.2136 -110.5631 288° West 325 374 11,700 -829 Descending Albuquerque Center
Fri 09:30:09 PM 32.2369 -110.6528 287° West 298 343 11,000 -1,073 Descending Albuquerque Center
Fri 09:31:10 PM 32.2614 -110.7328 290° West 269 310 9,500 -1,623 Descending Albuquerque Center
Fri 09:32:11 PM 32.2756 -110.8258 280° West 278 320 7,700 -1,220 Descending Albuquerque Center
Fri 09:33:13 PM 32.2736 -110.9175 269° West 287 330 7,000 -780 Descending Albuquerque Center
Fri 09:34:14 PM 32.2272 -110.9953 235° Southwest 262 302 6,100 -885 Descending Albuquerque Center

Login

Don't have an account? Register now (free) for customized features, flight alerts, and more!